sensor_id;sensor_type;location;lat;lon;timestamp;pressure;altitude;pressure_sealevel;temperature;humidity
20037;BME280;10179;42.640;23.312;2023-12-20T00:02:07;93993.19;;;6.32;52.53
20037;BME280;10179;42.640;23.312;2023-12-20T00:04:33;94032.72;;;6.57;52.50
20037;BME280;10179;42.640;23.312;2023-12-20T00:06:58;93992.38;;;6.31;52.84
20037;BME280;10179;42.640;23.312;2023-12-20T00:09:23;94022.03;;;6.52;52.50
20037;BME280;10179;42.640;23.312;2023-12-20T00:11:49;94015.38;;;6.49;52.87
20037;BME280;10179;42.640;23.312;2023-12-20T00:14:14;93994.44;;;6.36;52.71
20037;BME280;10179;42.640;23.312;2023-12-20T00:16:40;94023.47;;;6.54;52.50
20037;BME280;10179;42.640;23.312;2023-12-20T00:19:05;93874.34;;;5.60;52.66
20037;BME280;10179;42.640;23.312;2023-12-20T00:21:30;93939.69;;;6.08;52.80
20037;BME280;10179;42.640;23.312;2023-12-20T00:23:56;94014.22;;;6.52;52.75
20037;BME280;10179;42.640;23.312;2023-12-20T00:26:21;94006.22;;;6.53;52.90
20037;BME280;10179;42.640;23.312;2023-12-20T00:28:46;93970.19;;;6.35;53.32
20037;BME280;10179;42.640;23.312;2023-12-20T00:31:12;93958.78;;;6.43;53.15
20037;BME280;10179;42.640;23.312;2023-12-20T00:33:37;93964.41;;;6.47;52.32
20037;BME280;10179;42.640;23.312;2023-12-20T00:36:05;93936.03;;;6.02;52.44
20037;BME280;10179;42.640;23.312;2023-12-20T00:38:30;93782.38;;;5.31;51.87
20037;BME280;10179;42.640;23.312;2023-12-20T00:40:56;93976.50;;;6.54;52.06
20037;BME280;10179;42.640;23.312;2023-12-20T00:43:21;93855.19;;;5.74;52.47
20037;BME280;10179;42.640;23.312;2023-12-20T00:45:46;93945.66;;;6.30;52.29
20037;BME280;10179;42.640;23.312;2023-12-20T00:48:12;93976.09;;;6.51;52.43
20037;BME280;10179;42.640;23.312;2023-12-20T00:50:37;93913.63;;;6.08;52.10
20037;BME280;10179;42.640;23.312;2023-12-20T00:53:02;93997.38;;;6.54;52.13
20037;BME280;10179;42.640;23.312;2023-12-20T00:55:28;93833.13;;;5.70;51.76
20037;BME280;10179;42.640;23.312;2023-12-20T00:57:53;93940.84;;;6.33;51.62
20037;BME280;10179;42.640;23.312;2023-12-20T01:00:19;93797.25;;;5.44;51.67
20037;BME280;10179;42.640;23.312;2023-12-20T01:02:44;93924.38;;;6.26;52.03
20037;BME280;10179;42.640;23.312;2023-12-20T01:05:11;93960.81;;;6.48;51.96
20037;BME280;10179;42.640;23.312;2023-12-20T01:07:37;93891.13;;;6.07;52.13
20037;BME280;10179;42.640;23.312;2023-12-20T01:10:03;93953.56;;;6.43;51.70
20037;BME280;10179;42.640;23.312;2023-12-20T01:12:28;93943.09;;;6.36;51.96
20037;BME280;10179;42.640;23.312;2023-12-20T01:14:54;93950.56;;;6.46;51.97
20037;BME280;10179;42.640;23.312;2023-12-20T01:17:19;93766.75;;;5.31;51.24
20037;BME280;10179;42.640;23.312;2023-12-20T01:19:44;93701.78;;;4.45;51.37
20037;BME280;10179;42.640;23.312;2023-12-20T01:22:10;93941.06;;;6.38;51.55
20037;BME280;10179;42.640;23.312;2023-12-20T01:24:35;93848.66;;;5.57;51.38
20037;BME280;10179;42.640;23.312;2023-12-20T01:27:00;93831.13;;;5.72;51.49
20037;BME280;10179;42.640;23.312;2023-12-20T01:29:26;93867.69;;;5.85;51.69
20037;BME280;10179;42.640;23.312;2023-12-20T01:31:51;93927.44;;;6.36;51.61
20037;BME280;10179;42.640;23.312;2023-12-20T01:34:17;93925.84;;;6.35;51.67
20037;BME280;10179;42.640;23.312;2023-12-20T01:36:43;93927.06;;;6.39;51.69
20037;BME280;10179;42.640;23.312;2023-12-20T01:39:08;93895.72;;;6.33;51.45
20037;BME280;10179;42.640;23.312;2023-12-20T01:41:33;93924.66;;;6.44;51.32
20037;BME280;10179;42.640;23.312;2023-12-20T01:43:59;93845.38;;;5.97;51.61
20037;BME280;10179;42.640;23.312;2023-12-20T01:46:25;93896.59;;;6.12;51.55
20037;BME280;10179;42.640;23.312;2023-12-20T01:48:51;93803.72;;;5.48;51.78
20037;BME280;10179;42.640;23.312;2023-12-20T01:51:16;93791.81;;;5.67;52.28
20037;BME280;10179;42.640;23.312;2023-12-20T01:53:42;93901.16;;;6.38;52.24
20037;BME280;10179;42.640;23.312;2023-12-20T01:56:08;93890.53;;;6.39;52.64
20037;BME280;10179;42.640;23.312;2023-12-20T01:58:39;93878.88;;;6.42;52.92
20037;BME280;10179;42.640;23.312;2023-12-20T02:01:07;93853.91;;;6.19;52.41
20037;BME280;10179;42.640;23.312;2023-12-20T02:03:34;93882.13;;;6.44;52.34
20037;BME280;10179;42.640;23.312;2023-12-20T02:06:02;93896.97;;;6.43;53.11
20037;BME280;10179;42.640;23.312;2023-12-20T02:08:27;93875.47;;;6.41;52.72
20037;BME280;10179;42.640;23.312;2023-12-20T02:10:54;93885.31;;;6.39;52.71
20037;BME280;10179;42.640;23.312;2023-12-20T02:13:19;93698.31;;;5.16;52.40
20037;BME280;10179;42.640;23.312;2023-12-20T02:15:45;93874.81;;;6.26;51.82
20037;BME280;10179;42.640;23.312;2023-12-20T02:18:10;93832.56;;;6.03;52.22
20037;BME280;10179;42.640;23.312;2023-12-20T02:20:40;93882.44;;;6.28;52.48
20037;BME280;10179;42.640;23.312;2023-12-20T02:23:06;93752.66;;;5.54;52.50
20037;BME280;10179;42.640;23.312;2023-12-20T02:25:31;93836.53;;;5.98;52.51
20037;BME280;10179;42.640;23.312;2023-12-20T02:27:56;93861.53;;;6.21;52.23
20037;BME280;10179;42.640;23.312;2023-12-20T02:30:22;93800.81;;;5.92;52.77
20037;BME280;10179;42.640;23.312;2023-12-20T02:32:49;93827.38;;;5.81;52.88
20037;BME280;10179;42.640;23.312;2023-12-20T02:35:14;93841.50;;;6.28;52.97
20037;BME280;10179;42.640;23.312;2023-12-20T02:37:40;93821.44;;;6.22;53.07
20037;BME280;10179;42.640;23.312;2023-12-20T02:40:06;93825.25;;;6.26;53.12
20037;BME280;10179;42.640;23.312;2023-12-20T02:42:31;93639.25;;;5.10;52.95
20037;BME280;10179;42.640;23.312;2023-12-20T02:44:57;93803.31;;;6.14;53.55
20037;BME280;10179;42.640;23.312;2023-12-20T02:47:22;93781.03;;;6.05;53.44
20037;BME280;10179;42.640;23.312;2023-12-20T02:49:48;93647.31;;;5.21;53.31
20037;BME280;10179;42.640;23.312;2023-12-20T02:52:14;93737.53;;;5.70;53.54
20037;BME280;10179;42.640;23.312;2023-12-20T02:54:39;93705.19;;;5.52;53.05
20037;BME280;10179;42.640;23.312;2023-12-20T02:57:05;93829.13;;;6.37;53.13
20037;BME280;10179;42.640;23.312;2023-12-20T02:59:30;93835.09;;;6.31;52.87
20037;BME280;10179;42.640;23.312;2023-12-20T03:01:55;93680.34;;;5.21;52.32
20037;BME280;10179;42.640;23.312;2023-12-20T03:04:21;93826.25;;;6.18;52.74
20037;BME280;10179;42.640;23.312;2023-12-20T03:06:46;93820.91;;;5.98;52.72
20037;BME280;10179;42.640;23.312;2023-12-20T03:09:11;93830.38;;;6.06;53.18
20037;BME280;10179;42.640;23.312;2023-12-20T03:11:37;93706.00;;;5.24;53.32
20037;BME280;10179;42.640;23.312;2023-12-20T03:14:02;93870.69;;;6.10;52.70
20037;BME280;10179;42.640;23.312;2023-12-20T03:16:28;93828.56;;;6.07;52.85
20037;BME280;10179;42.640;23.312;2023-12-20T03:18:53;93829.94;;;6.03;52.82
20037;BME280;10179;42.640;23.312;2023-12-20T03:21:19;93840.03;;;5.84;52.98
20037;BME280;10179;42.640;23.312;2023-12-20T03:23:45;93773.53;;;5.60;53.15
20037;BME280;10179;42.640;23.312;2023-12-20T03:26:10;93816.81;;;5.89;53.49
20037;BME280;10179;42.640;23.312;2023-12-20T03:28:36;93785.22;;;5.71;53.53
20037;BME280;10179;42.640;23.312;2023-12-20T03:31:02;93821.28;;;5.95;53.34
20037;BME280;10179;42.640;23.312;2023-12-20T03:33:28;93822.63;;;5.91;53.07
20037;BME280;10179;42.640;23.312;2023-12-20T03:35:53;93817.59;;;5.83;52.76
20037;BME280;10179;42.640;23.312;2023-12-20T03:38:18;93814.72;;;5.78;53.21
20037;BME280;10179;42.640;23.312;2023-12-20T03:40:44;93434.59;;;3.35;53.20
20037;BME280;10179;42.640;23.312;2023-12-20T03:43:09;93807.28;;;5.75;53.42
20037;BME280;10179;42.640;23.312;2023-12-20T03:45:35;93815.13;;;5.75;53.41
20037;BME280;10179;42.640;23.312;2023-12-20T03:48:00;93820.69;;;5.72;53.27
20037;BME280;10179;42.640;23.312;2023-12-20T03:50:26;93810.28;;;5.72;53.45
20037;BME280;10179;42.640;23.312;2023-12-20T03:52:52;93701.28;;;5.06;53.16
20037;BME280;10179;42.640;23.312;2023-12-20T03:55:17;93765.25;;;5.50;53.34
20037;BME280;10179;42.640;23.312;2023-12-20T03:57:43;93688.59;;;4.96;52.97
20037;BME280;10179;42.640;23.312;2023-12-20T04:00:08;93411.84;;;3.16;52.69
20037;BME280;10179;42.640;23.312;2023-12-20T04:02:41;93802.56;;;5.57;52.87
20037;BME280;10179;42.640;23.312;2023-12-20T04:05:07;93800.00;;;5.64;53.06
20037;BME280;10179;42.640;23.312;2023-12-20T04:07:33;93612.78;;;4.43;52.63
20037;BME280;10179;42.640;23.312;2023-12-20T04:09:59;93801.41;;;5.60;53.21
20037;BME280;10179;42.640;23.312;2023-12-20T04:12:25;93723.50;;;5.09;53.70
20037;BME280;10179;42.640;23.312;2023-12-20T04:14:51;93800.69;;;5.72;53.46
20037;BME280;10179;42.640;23.312;2023-12-20T04:17:17;93600.03;;;4.55;53.09
20037;BME280;10179;42.640;23.312;2023-12-20T04:19:42;93663.09;;;4.85;53.51
20037;BME280;10179;42.640;23.312;2023-12-20T04:22:08;93745.59;;;5.47;53.16
20037;BME280;10179;42.640;23.312;2023-12-20T04:24:33;93689.50;;;4.82;52.82
20037;BME280;10179;42.640;23.312;2023-12-20T04:26:59;93663.47;;;4.82;52.95
20037;BME280;10179;42.640;23.312;2023-12-20T04:29:24;93775.31;;;5.53;53.05
20037;BME280;10179;42.640;23.312;2023-12-20T04:31:50;93740.06;;;5.29;53.66
20037;BME280;10179;42.640;23.312;2023-12-20T04:34:17;93768.88;;;5.49;53.36
20037;BME280;10179;42.640;23.312;2023-12-20T04:36:43;93650.38;;;4.69;53.20
20037;BME280;10179;42.640;23.312;2023-12-20T04:39:08;93760.63;;;5.45;53.32
20037;BME280;10179;42.640;23.312;2023-12-20T04:41:34;93731.09;;;5.32;53.55
20037;BME280;10179;42.640;23.312;2023-12-20T04:43:59;93679.19;;;4.95;54.06
20037;BME280;10179;42.640;23.312;2023-12-20T04:46:25;93542.25;;;4.25;53.52
20037;BME280;10179;42.640;23.312;2023-12-20T04:48:51;93706.22;;;5.29;53.26
20037;BME280;10179;42.640;23.312;2023-12-20T04:51:16;93695.31;;;5.12;53.35
20037;BME280;10179;42.640;23.312;2023-12-20T04:53:41;93745.69;;;5.61;53.88
20037;BME280;10179;42.640;23.312;2023-12-20T04:56:07;93672.34;;;4.94;53.33
20037;BME280;10179;42.640;23.312;2023-12-20T04:58:32;93564.59;;;4.47;53.02
20037;BME280;10179;42.640;23.312;2023-12-20T05:00:58;93754.97;;;5.70;53.47
20037;BME280;10179;42.640;23.312;2023-12-20T05:03:23;93563.25;;;4.58;53.84
20037;BME280;10179;42.640;23.312;2023-12-20T05:05:49;93726.06;;;5.65;54.50
20037;BME280;10179;42.640;23.312;2023-12-20T05:08:14;93665.78;;;5.33;54.51
20037;BME280;10179;42.640;23.312;2023-12-20T05:10:40;93747.06;;;5.91;54.38
20037;BME280;10179;42.640;23.312;2023-12-20T05:13:05;93739.91;;;5.93;54.06
20037;BME280;10179;42.640;23.312;2023-12-20T05:15:31;93701.66;;;5.66;53.49
20037;BME280;10179;42.640;23.312;2023-12-20T05:17:56;93741.59;;;5.80;53.47
20037;BME280;10179;42.640;23.312;2023-12-20T05:20:22;93682.66;;;5.37;53.26
20037;BME280;10179;42.640;23.312;2023-12-20T05:22:48;93734.50;;;5.67;53.04
20037;BME280;10179;42.640;23.312;2023-12-20T05:25:13;93626.94;;;4.97;52.97
20037;BME280;10179;42.640;23.312;2023-12-20T05:27:39;93721.66;;;5.59;52.96
20037;BME280;10179;42.640;23.312;2023-12-20T05:30:05;93751.06;;;5.53;52.93
20037;BME280;10179;42.640;23.312;2023-12-20T05:32:31;93561.25;;;4.53;52.98
20037;BME280;10179;42.640;23.312;2023-12-20T05:34:56;93614.63;;;4.77;53.08
20037;BME280;10179;42.640;23.312;2023-12-20T05:37:22;93559.78;;;4.44;53.14
20037;BME280;10179;42.640;23.312;2023-12-20T05:39:47;93597.72;;;4.67;52.44
20037;BME280;10179;42.640;23.312;2023-12-20T05:42:12;93595.00;;;4.47;52.38
20037;BME280;10179;42.640;23.312;2023-12-20T05:44:38;93700.00;;;4.95;52.63
20037;BME280;10179;42.640;23.312;2023-12-20T05:47:03;93716.97;;;5.19;52.57
20037;BME280;10179;42.640;23.312;2023-12-20T05:49:29;93723.13;;;5.12;53.05
20037;BME280;10179;42.640;23.312;2023-12-20T05:51:54;93733.69;;;5.03;53.37
20037;BME280;10179;42.640;23.312;2023-12-20T05:54:19;93714.25;;;4.99;53.46
20037;BME280;10179;42.640;23.312;2023-12-20T05:56:45;93628.25;;;4.30;53.55
20037;BME280;10179;42.640;23.312;2023-12-20T05:59:10;93707.63;;;4.97;53.53
20037;BME280;10179;42.640;23.312;2023-12-20T06:01:35;93703.50;;;4.81;53.70
20037;BME280;10179;42.640;23.312;2023-12-20T06:04:01;93650.03;;;4.50;54.17
20037;BME280;10179;42.640;23.312;2023-12-20T06:06:26;93702.50;;;4.82;54.47
20037;BME280;10179;42.640;23.312;2023-12-20T06:08:52;93633.56;;;4.43;54.68
20037;BME280;10179;42.640;23.312;2023-12-20T06:11:17;93703.94;;;4.85;54.16
20037;BME280;10179;42.640;23.312;2023-12-20T06:13:42;93666.13;;;4.61;54.42
20037;BME280;10179;42.640;23.312;2023-12-20T06:16:08;93698.72;;;4.85;54.67
20037;BME280;10179;42.640;23.312;2023-12-20T06:18:33;93702.13;;;4.85;54.60
20037;BME280;10179;42.640;23.312;2023-12-20T06:20:59;93709.34;;;4.62;54.33
20037;BME280;10179;42.640;23.312;2023-12-20T06:23:24;93635.31;;;4.36;54.34
20037;BME280;10179;42.640;23.312;2023-12-20T06:25:49;93747.66;;;4.96;54.08
20037;BME280;10179;42.640;23.312;2023-12-20T06:28:15;93706.44;;;4.99;54.14
20037;BME280;10179;42.640;23.312;2023-12-20T06:30:40;93710.91;;;5.06;54.13
20037;BME280;10179;42.640;23.312;2023-12-20T06:33:05;93710.50;;;5.09;54.09
20037;BME280;10179;42.640;23.312;2023-12-20T06:35:32;93704.38;;;5.16;53.93
20037;BME280;10179;42.640;23.312;2023-12-20T06:37:57;93711.41;;;5.22;54.06
20037;BME280;10179;42.640;23.312;2023-12-20T06:40:23;93698.41;;;5.29;53.42
20037;BME280;10179;42.640;23.312;2023-12-20T06:42:48;93701.81;;;5.23;53.17
20037;BME280;10179;42.640;23.312;2023-12-20T06:45:13;93696.19;;;5.26;53.50
20037;BME280;10179;42.640;23.312;2023-12-20T06:47:39;93656.00;;;5.00;53.13
20037;BME280;10179;42.640;23.312;2023-12-20T06:50:05;93658.88;;;5.12;53.37
20037;BME280;10179;42.640;23.312;2023-12-20T06:52:30;93688.28;;;5.41;53.80
20037;BME280;10179;42.640;23.312;2023-12-20T06:54:56;93687.16;;;5.57;53.88
20037;BME280;10179;42.640;23.312;2023-12-20T06:57:21;93615.91;;;5.30;53.37
20037;BME280;10179;42.640;23.312;2023-12-20T06:59:47;93606.16;;;5.38;52.00
20037;BME280;10179;42.640;23.312;2023-12-20T07:02:12;93645.31;;;5.65;52.01
20037;BME280;10179;42.640;23.312;2023-12-20T07:04:41;93676.94;;;6.03;52.00
20037;BME280;10179;42.640;23.312;2023-12-20T07:07:07;93621.53;;;5.81;51.93
20037;BME280;10179;42.640;23.312;2023-12-20T07:09:32;93682.44;;;6.35;51.62
20037;BME280;10179;42.640;23.312;2023-12-20T07:11:58;93653.34;;;6.31;50.66
20037;BME280;10179;42.640;23.312;2023-12-20T07:14:23;93696.16;;;6.57;51.24
20037;BME280;10179;42.640;23.312;2023-12-20T07:16:49;93666.25;;;6.79;51.51
20037;BME280;10179;42.640;23.312;2023-12-20T07:19:14;93591.97;;;6.42;49.89
20037;BME280;10179;42.640;23.312;2023-12-20T07:21:39;93670.66;;;6.85;49.22
20037;BME280;10179;42.640;23.312;2023-12-20T07:24:05;93587.97;;;6.39;49.60
20037;BME280;10179;42.640;23.312;2023-12-20T07:26:30;93575.91;;;6.38;49.76
20037;BME280;10179;42.640;23.312;2023-12-20T07:28:56;93509.31;;;6.09;49.74
20037;BME280;10179;42.640;23.312;2023-12-20T07:31:21;93636.13;;;6.97;49.44
20037;BME280;10179;42.640;23.312;2023-12-20T07:33:49;93646.94;;;7.20;49.39
20037;BME280;10179;42.640;23.312;2023-12-20T07:36:14;93557.88;;;6.57;49.07
20037;BME280;10179;42.640;23.312;2023-12-20T07:38:39;93656.53;;;7.33;48.84
20037;BME280;10179;42.640;23.312;2023-12-20T07:41:09;93656.53;;;7.39;49.14
20037;BME280;10179;42.640;23.312;2023-12-20T07:43:35;93547.78;;;6.80;48.96
20037;BME280;10179;42.640;23.312;2023-12-20T07:46:04;93668.53;;;7.54;48.26
20037;BME280;10179;42.640;23.312;2023-12-20T07:48:30;93655.31;;;7.49;47.98
20037;BME280;10179;42.640;23.312;2023-12-20T07:50:55;93619.19;;;7.19;47.44
20037;BME280;10179;42.640;23.312;2023-12-20T07:53:21;93527.78;;;6.28;47.35
20037;BME280;10179;42.640;23.312;2023-12-20T07:55:46;93649.38;;;6.95;48.43
20037;BME280;10179;42.640;23.312;2023-12-20T07:58:11;93646.97;;;6.80;49.39
20037;BME280;10179;42.640;23.312;2023-12-20T08:00:37;93549.44;;;6.15;49.10
20037;BME280;10179;42.640;23.312;2023-12-20T08:03:03;93648.97;;;6.65;50.49
20037;BME280;10179;42.640;23.312;2023-12-20T08:05:28;93639.34;;;6.72;50.62
20037;BME280;10179;42.640;23.312;2023-12-20T08:07:54;93624.47;;;6.59;50.75
20037;BME280;10179;42.640;23.312;2023-12-20T08:10:19;93502.88;;;5.92;50.44
20037;BME280;10179;42.640;23.312;2023-12-20T08:12:44;93641.16;;;6.91;50.75
20037;BME280;10179;42.640;23.312;2023-12-20T08:15:10;93631.50;;;6.99;50.54
20037;BME280;10179;42.640;23.312;2023-12-20T08:17:35;93625.66;;;7.10;50.42
20037;BME280;10179;42.640;23.312;2023-12-20T08:20:01;93638.50;;;7.18;49.90
20037;BME280;10179;42.640;23.312;2023-12-20T08:22:26;93623.22;;;7.22;49.68
20037;BME280;10179;42.640;23.312;2023-12-20T08:24:51;93630.88;;;7.10;49.29
20037;BME280;10179;42.640;23.312;2023-12-20T08:27:17;93628.06;;;7.05;49.77
20037;BME280;10179;42.640;23.312;2023-12-20T08:29:44;93636.72;;;6.92;50.14
20037;BME280;10179;42.640;23.312;2023-12-20T08:32:10;93608.41;;;6.89;50.01
20037;BME280;10179;42.640;23.312;2023-12-20T08:34:35;93571.13;;;6.35;50.01
20037;BME280;10179;42.640;23.312;2023-12-20T08:37:01;93449.53;;;5.74;50.49
20037;BME280;10179;42.640;23.312;2023-12-20T08:39:26;93617.66;;;6.65;50.44
20037;BME280;10179;42.640;23.312;2023-12-20T08:41:52;93592.59;;;6.64;50.67
20037;BME280;10179;42.640;23.312;2023-12-20T08:44:17;93594.41;;;6.57;50.86
20037;BME280;10179;42.640;23.312;2023-12-20T08:46:43;93602.81;;;6.59;51.34
20037;BME280;10179;42.640;23.312;2023-12-20T08:49:08;93595.59;;;6.61;51.49
20037;BME280;10179;42.640;23.312;2023-12-20T08:51:34;93603.22;;;6.69;52.10
20037;BME280;10179;42.640;23.312;2023-12-20T08:54:00;93595.78;;;6.79;51.62
20037;BME280;10179;42.640;23.312;2023-12-20T08:56:25;93597.38;;;6.80;51.79
20037;BME280;10179;42.640;23.312;2023-12-20T08:58:51;93585.94;;;6.81;51.44
20037;BME280;10179;42.640;23.312;2023-12-20T09:01:16;93591.16;;;6.81;51.39
20037;BME280;10179;42.640;23.312;2023-12-20T09:03:41;93453.16;;;5.87;51.20
20037;BME280;10179;42.640;23.312;2023-12-20T09:06:07;93532.75;;;6.62;51.66
20037;BME280;10179;42.640;23.312;2023-12-20T09:08:32;93561.03;;;6.92;51.19
20037;BME280;10179;42.640;23.312;2023-12-20T09:10:58;93563.44;;;6.87;51.01
20037;BME280;10179;42.640;23.312;2023-12-20T09:13:23;93517.31;;;6.61;50.85
20037;BME280;10179;42.640;23.312;2023-12-20T09:15:57;93395.03;;;5.80;51.36
20037;BME280;10179;42.640;23.312;2023-12-20T09:18:22;93412.47;;;5.99;51.90
20037;BME280;10179;42.640;23.312;2023-12-20T09:20:48;93517.25;;;6.81;51.30
20037;BME280;10179;42.640;23.312;2023-12-20T09:23:13;93505.63;;;6.83;51.80
20037;BME280;10179;42.640;23.312;2023-12-20T09:25:39;93435.69;;;6.34;51.78
20037;BME280;10179;42.640;23.312;2023-12-20T09:28:04;93495.00;;;6.85;51.80
20037;BME280;10179;42.640;23.312;2023-12-20T09:30:30;93328.50;;;5.84;51.17
20037;BME280;10179;42.640;23.312;2023-12-20T09:32:57;93402.97;;;6.38;51.72
20037;BME280;10179;42.640;23.312;2023-12-20T09:35:22;93499.53;;;7.03;51.20
20037;BME280;10179;42.640;23.312;2023-12-20T09:37:48;93485.88;;;7.01;51.57
20037;BME280;10179;42.640;23.312;2023-12-20T09:40:14;93491.09;;;7.01;51.54
20037;BME280;10179;42.640;23.312;2023-12-20T09:43:10;93488.69;;;7.06;51.96
20037;BME280;10179;42.640;23.312;2023-12-20T09:45:36;93459.41;;;6.90;52.18
20037;BME280;10179;42.640;23.312;2023-12-20T09:48:03;93370.47;;;6.47;51.96
20037;BME280;10179;42.640;23.312;2023-12-20T09:50:30;93321.22;;;6.12;51.57
20037;BME280;10179;42.640;23.312;2023-12-20T09:52:58;93486.09;;;7.06;52.15
20037;BME280;10179;42.640;23.312;2023-12-20T09:55:25;93431.34;;;6.86;52.30
20037;BME280;10179;42.640;23.312;2023-12-20T09:57:50;93459.34;;;7.10;51.79
20037;BME280;10179;42.640;23.312;2023-12-20T10:00:16;93318.84;;;6.11;52.34
20037;BME280;10179;42.640;23.312;2023-12-20T10:02:48;93423.63;;;6.98;52.82
20037;BME280;10179;42.640;23.312;2023-12-20T10:05:15;93460.44;;;7.34;52.32
20037;BME280;10179;42.640;23.312;2023-12-20T10:07:41;93427.03;;;6.98;52.30
20037;BME280;10179;42.640;23.312;2023-12-20T10:10:07;93440.41;;;7.22;52.16
20037;BME280;10179;42.640;23.312;2023-12-20T10:12:34;92923.38;;;4.01;52.36
20037;BME280;10179;42.640;23.312;2023-12-20T10:14:59;93436.03;;;7.47;52.77
20037;BME280;10179;42.640;23.312;2023-12-20T10:17:27;93400.59;;;7.26;51.83
20037;BME280;10179;42.640;23.312;2023-12-20T10:19:54;93342.13;;;6.96;52.16
20037;BME280;10179;42.640;23.312;2023-12-20T10:22:19;93427.72;;;7.57;51.53
20037;BME280;10179;42.640;23.312;2023-12-20T10:24:45;93409.28;;;7.52;51.55
20037;BME280;10179;42.640;23.312;2023-12-20T10:27:12;93358.38;;;7.29;51.67
20037;BME280;10179;42.640;23.312;2023-12-20T10:29:38;93398.94;;;7.63;51.70
20037;BME280;10179;42.640;23.312;2023-12-20T10:32:23;93402.19;;;7.84;51.70
20037;BME280;10179;42.640;23.312;2023-12-20T10:34:50;93301.84;;;7.16;51.26
20037;BME280;10179;42.640;23.312;2023-12-20T10:37:15;93401.41;;;7.83;51.47
20037;BME280;10179;42.640;23.312;2023-12-20T10:39:42;93393.34;;;7.85;51.61
20037;BME280;10179;42.640;23.312;2023-12-20T10:42:10;93383.25;;;7.38;51.61
20037;BME280;10179;42.640;23.312;2023-12-20T10:44:36;93366.81;;;7.81;51.64
20037;BME280;10179;42.640;23.312;2023-12-20T10:47:02;93374.13;;;7.98;51.44
20037;BME280;10179;42.640;23.312;2023-12-20T10:49:30;93394.19;;;8.04;51.45
20037;BME280;10179;42.640;23.312;2023-12-20T10:51:56;93357.28;;;8.12;50.77
20037;BME280;10179;42.640;23.312;2023-12-20T10:54:23;93300.28;;;7.59;51.00
20037;BME280;10179;42.640;23.312;2023-12-20T10:56:51;93366.53;;;8.15;51.00
20037;BME280;10179;42.640;23.312;2023-12-20T10:59:19;93331.34;;;7.92;51.35
20037;BME280;10179;42.640;23.312;2023-12-20T11:01:47;93358.03;;;8.19;50.91
20037;BME280;10179;42.640;23.312;2023-12-20T11:04:17;93333.28;;;7.97;51.04
20037;BME280;10179;42.640;23.312;2023-12-20T11:06:51;93316.75;;;8.03;51.17
20037;BME280;10179;42.640;23.312;2023-12-20T11:09:24;93253.56;;;7.69;50.71
20037;BME280;10179;42.640;23.312;2023-12-20T11:12:09;93345.59;;;8.33;50.83
20037;BME280;10179;42.640;23.312;2023-12-20T11:17:09;93337.72;;;8.40;51.14
20037;BME280;10179;42.640;23.312;2023-12-20T11:22:22;93287.16;;;8.21;50.54
20037;BME280;10179;42.640;23.312;2023-12-20T11:24:48;93323.03;;;8.57;51.00
20037;BME280;10179;42.640;23.312;2023-12-20T11:27:14;93317.72;;;8.64;50.37
20037;BME280;10179;42.640;23.312;2023-12-20T11:29:41;93266.31;;;8.32;50.21
20037;BME280;10179;42.640;23.312;2023-12-20T11:32:36;93279.38;;;8.69;50.35
20037;BME280;10179;42.640;23.312;2023-12-20T11:35:17;93288.50;;;8.78;50.00
20037;BME280;10179;42.640;23.312;2023-12-20T11:37:43;93283.03;;;8.80;50.23
20037;BME280;10179;42.640;23.312;2023-12-20T11:40:14;93268.81;;;8.76;49.92
20037;BME280;10179;42.640;23.312;2023-12-20T11:42:44;93289.22;;;8.86;49.86
20037;BME280;10179;42.640;23.312;2023-12-20T11:45:15;93268.56;;;8.77;49.77
20037;BME280;10179;42.640;23.312;2023-12-20T11:47:48;93270.00;;;8.92;49.86
20037;BME280;10179;42.640;23.312;2023-12-20T11:50:17;93119.41;;;8.05;49.60
20037;BME280;10179;42.640;23.312;2023-12-20T11:52:42;93253.50;;;9.03;49.71
20037;BME280;10179;42.640;23.312;2023-12-20T11:55:08;93278.34;;;9.12;49.44
20037;BME280;10179;42.640;23.312;2023-12-20T11:57:33;93118.88;;;8.27;49.47
20037;BME280;10179;42.640;23.312;2023-12-20T11:59:59;93247.84;;;9.29;49.37
20037;BME280;10179;42.640;23.312;2023-12-20T12:02:24;93225.88;;;9.42;49.11
20037;BME280;10179;42.640;23.312;2023-12-20T12:04:50;93183.81;;;9.25;48.97
20037;BME280;10179;42.640;23.312;2023-12-20T12:07:18;93229.84;;;9.68;49.09
20037;BME280;10179;42.640;23.312;2023-12-20T12:09:44;93271.56;;;9.82;48.39
20037;BME280;10179;42.640;23.312;2023-12-20T12:12:10;93114.81;;;9.08;48.11
20037;BME280;10179;42.640;23.312;2023-12-20T12:14:37;92848.91;;;7.54;47.92
20037;BME280;10179;42.640;23.312;2023-12-20T12:17:03;92993.03;;;8.47;47.99
20037;BME280;10179;42.640;23.312;2023-12-20T12:19:29;93122.53;;;9.26;48.30
20037;BME280;10179;42.640;23.312;2023-12-20T12:22:13;93175.13;;;9.84;48.15
20037;BME280;10179;42.640;23.312;2023-12-20T12:24:43;93216.22;;;10.07;48.08
20037;BME280;10179;42.640;23.312;2023-12-20T12:27:09;93062.97;;;9.22;48.56
20037;BME280;10179;42.640;23.312;2023-12-20T12:29:35;93143.66;;;9.84;48.09
20037;BME280;10179;42.640;23.312;2023-12-20T12:32:04;93080.09;;;9.53;48.16
20037;BME280;10179;42.640;23.312;2023-12-20T12:34:31;93092.50;;;9.69;48.01
20037;BME280;10179;42.640;23.312;2023-12-20T12:36:56;93103.28;;;9.85;47.84
20037;BME280;10179;42.640;23.312;2023-12-20T12:39:23;93125.09;;;10.02;47.87
20037;BME280;10179;42.640;23.312;2023-12-20T12:41:52;93119.47;;;10.10;47.60
20037;BME280;10179;42.640;23.312;2023-12-20T12:44:18;93049.66;;;9.64;47.50
20037;BME280;10179;42.640;23.312;2023-12-20T12:46:47;93063.34;;;9.83;47.69
20037;BME280;10179;42.640;23.312;2023-12-20T12:49:15;93186.69;;;10.68;47.42
20037;BME280;10179;42.640;23.312;2023-12-20T12:51:41;93167.66;;;10.61;47.37
20037;BME280;10179;42.640;23.312;2023-12-20T12:54:06;93185.03;;;10.79;47.17
20037;BME280;10179;42.640;23.312;2023-12-20T12:56:32;93186.41;;;10.82;47.04
20037;BME280;10179;42.640;23.312;2023-12-20T12:58:57;93094.66;;;10.30;47.09
20037;BME280;10179;42.640;23.312;2023-12-20T13:01:23;93187.50;;;10.86;46.74